Weather reports worldwide

Advertisment
Brocken, Germany (10453): temperature & dewpoint: 17.10.2019 05:00:00 - 23.10.2019 05:00:00 (CEST)Brocken, Germany (10453): temperature 5cm: 17.10.2019 05:00:00 - 23.10.2019 05:00:00 (CEST)Brocken, Germany (10453): wind speed & gusts: 17.10.2019 05:00:00 - 23.10.2019 05:00:00 (CEST)Brocken, Germany (10453): wind direction: 17.10.2019 05:00:00 - 23.10.2019 05:00:00 (CEST)Brocken, Germany (10453): visibility: 17.10.2019 05:00:00 - 23.10.2019 05:00:00 (CEST)Brocken, Germany (10453): sunshine duration: 17.10.2019 05:00:00 - 23.10.2019 05:00:00 (CEST)
Date & Time tt [°C] td [°C] tt 5cm [°C] ff [km/h] ff [kn] fx [km/h] fx [kn] dd vv [km] sd [min]
23.10.2019 05:00:00 7,5 7,5 7,0 23 12 27 14 S - 0
23.10.2019 04:00:00 8,0 7,8 7,1 22 12 26 14 S 50 0
23.10.2019 03:00:00 8,3 6,9 7,3 20 11 26 14 SSW 60 0
23.10.2019 02:00:00 7,3 6,4 6,8 24 13 35 19 SSW 8 0
23.10.2019 01:00:00 8,4 5,4 7,2 28 15 32 17 SSW 80 0
23.10.2019 00:00:00 8,5 -1,0 5,7 32 17 35 19 SSW 80 0
22.10.2019 23:00:00 6,8 5,1 5,6 24 13 31 17 SW 70 0
22.10.2019 22:00:00 7,4 2,8 5,3 27 14 29 15 SW 70 0
22.10.2019 21:00:00 6,6 5,9 5,5 26 14 28 15 SW - 0
22.10.2019 20:00:00 6,3 5,5 4,9 24 13 29 16 SSW - 0
22.10.2019 19:00:00 6,0 5,0 4,5 14 8 20 11 SSW - 4
22.10.2019 18:00:00 7,8 5,0 4,7 8 5 17 9 WSW 82 57
22.10.2019 17:00:00 9,8 4,0 9,9 13 7 24 13 SW 82 60
22.10.2019 16:00:00 10,3 3,4 12,4 18 10 24 13 WSW 80 60
22.10.2019 15:00:00 10,4 4,5 13,8 16 9 25 14 SW 82 53
22.10.2019 14:00:00 11,2 3,2 14,6 19 10 39 21 W 82 57
22.10.2019 13:00:00 9,8 1,4 12,9 26 14 40 21 WSW 82 41
22.10.2019 12:00:00 9,4 1,3 12,4 32 17 55 30 WSW 82 13
22.10.2019 11:00:00 8,6 0,0 8,7 47 25 57 31 WSW 82 45
22.10.2019 10:00:00 8,3 -0,3 7,8 47 25 58 31 SW 82 43
22.10.2019 09:00:00 8,3 -0,5 6,9 48 26 56 31 SW 82 0
22.10.2019 08:00:00 8,4 0,9 7,0 54 29 65 35 SW 82 0
22.10.2019 07:00:00 7,8 1,7 5,6 56 30 68 37 SW 70 0
22.10.2019 06:00:00 7,2 2,6 5,1 55 30 62 33 SW 25 0
22.10.2019 05:00:00 5,7 4,9 5,2 48 26 55 30 SW 12 0
22.10.2019 04:00:00 6,6 3,4 5,5 42 23 50 27 SW 20 0
22.10.2019 03:00:00 6,0 5,9 6,1 42 23 49 27 SW 0,8 0
22.10.2019 02:00:00 7,0 7,0 7,1 40 22 49 26 SW - 0
22.10.2019 01:00:00 7,1 7,1 7,3 42 23 56 30 SW - 0
22.10.2019 00:00:00 7,4 7,4 7,6 44 24 55 30 SW - 0
21.10.2019 23:00:00 7,7 7,7 7,9 37 20 49 26 SW - 0
21.10.2019 22:00:00 7,9 7,9 8,1 39 21 50 27 SW - 0
21.10.2019 21:00:00 8,1 8,0 8,3 41 22 49 26 SW - 0
21.10.2019 20:00:00 8,7 8,7 8,9 40 22 52 28 SSW - 0
21.10.2019 19:00:00 9,0 9,0 9,2 41 22 54 29 SSW - 0
21.10.2019 18:00:00 9,3 9,2 9,6 40 22 48 26 SSW - 0
21.10.2019 17:00:00 9,3 9,2 9,8 29 16 52 28 SSW 0,1 0
21.10.2019 16:00:00 9,4 9,0 10,3 34 18 42 23 SSW 50 1
21.10.2019 15:00:00 10,0 8,3 11,0 35 19 53 28 SSW 82 31
21.10.2019 14:00:00 10,9 8,5 13,6 35 19 67 36 SW 82 51
21.10.2019 13:00:00 10,7 7,1 11,7 56 30 67 36 SW 82 5
21.10.2019 12:00:00 9,5 8,8 10,9 52 28 74 40 SW 82 31
21.10.2019 11:00:00 10,7 7,0 10,6 61 33 71 39 SW 82 0
21.10.2019 10:00:00 9,4 8,1 9,3 56 30 74 40 SW 82 0
21.10.2019 09:00:00 10,0 7,6 9,1 63 34 79 43 WSW 82 4
21.10.2019 08:00:00 10,7 7,7 9,5 53 29 74 40 WSW 82 0
21.10.2019 07:00:00 11,5 6,9 10,0 56 30 71 39 SW 82 0
21.10.2019 06:00:00 12,2 7,2 10,3 40 22 48 26 SSW 82 0
21.10.2019 05:00:00 13,5 6,4 10,3 33 18 39 21 SW 82 0
21.10.2019 04:00:00 10,9 8,1 9,1 27 14 48 26 SW 82 0
21.10.2019 03:00:00 10,7 8,1 9,1 45 24 56 30 WSW 82 0
21.10.2019 02:00:00 12,5 6,8 11,0 43 23 52 28 SW 82 0
21.10.2019 01:00:00 13,5 6,0 10,5 27 15 37 20 SSW 80 0
21.10.2019 00:00:00 12,5 7,7 10,6 25 14 33 18 S 80 0
20.10.2019 23:00:00 12,5 7,3 10,3 26 14 29 16 S 80 0
20.10.2019 22:00:00 11,0 9,2 9,7 26 14 34 19 S 82 0
20.10.2019 21:00:00 10,7 9,5 10,0 29 16 40 21 SSE - 0
20.10.2019 20:00:00 10,2 9,2 9,4 27 14 34 18 SSE - 0
20.10.2019 19:00:00 9,8 9,4 9,3 24 13 36 20 SSE - 0
20.10.2019 18:00:00 9,5 9,2 9,2 27 14 35 19 SSE 82 0
20.10.2019 17:00:00 10,0 7,7 9,5 29 16 55 30 SSW 82 0
20.10.2019 16:00:00 9,7 7,9 9,5 46 25 63 34 SW 82 0
20.10.2019 15:00:00 8,8 8,7 9,5 50 27 67 36 SSW - 0
20.10.2019 14:00:00 8,7 8,6 9,8 43 23 56 30 SSW 40 0
20.10.2019 13:00:00 8,4 8,4 9,2 40 22 59 32 SSW - 0
20.10.2019 12:00:00 8,5 8,5 9,7 44 24 61 33 SW - 1
20.10.2019 11:00:00 8,0 8,0 8,5 39 21 49 26 SW - 0
20.10.2019 10:00:00 7,6 7,6 8,0 29 15 47 26 SSW - 0
20.10.2019 09:00:00 7,5 7,5 7,7 36 19 51 28 SSW - 0
20.10.2019 08:00:00 7,4 7,4 7,6 37 20 47 25 SW - 0
20.10.2019 07:00:00 7,3 7,3 7,4 34 18 45 24 SSW - 0
20.10.2019 06:00:00 7,4 7,4 7,5 34 19 53 28 SW - 0
20.10.2019 05:00:00 7,3 7,3 7,4 39 21 50 27 SSW - 0
20.10.2019 04:00:00 7,3 7,3 7,4 37 20 55 30 SSW - 0
20.10.2019 03:00:00 7,3 7,3 7,4 43 23 58 31 SW - 0
20.10.2019 02:00:00 7,2 7,2 7,4 46 25 62 34 SW - 0
20.10.2019 01:00:00 7,2 7,2 7,3 49 27 68 37 SW - 0
20.10.2019 00:00:00 7,2 7,2 7,4 50 27 71 39 SSW - 0
19.10.2019 23:00:00 7,0 7,0 7,2 56 30 69 38 SW - 0
19.10.2019 22:00:00 7,0 7,0 7,2 50 27 67 36 SSW - 0
19.10.2019 21:00:00 7,1 7,1 7,3 55 30 74 40 SSW - 0
19.10.2019 20:00:00 7,1 7,1 7,3 55 30 69 38 SSW - 0
19.10.2019 19:00:00 7,2 7,2 7,4 54 29 70 38 SSW - 0
19.10.2019 18:00:00 7,1 7,1 7,3 57 31 75 40 SSW - 0
19.10.2019 17:00:00 7,2 7,2 7,5 53 28 77 42 SSW - 0
19.10.2019 16:00:00 6,9 6,9 7,5 55 30 76 41 SSW - 0
19.10.2019 15:00:00 6,6 6,6 7,0 61 33 77 41 SSW - 0
19.10.2019 14:00:00 6,2 6,2 6,9 57 31 79 42 SSW - 0
19.10.2019 13:00:00 5,9 5,9 6,5 59 32 83 45 SSW - 0
19.10.2019 12:00:00 5,5 5,5 6,0 60 33 74 40 SSW - 0
19.10.2019 11:00:00 4,8 4,8 5,3 53 29 63 34 SSW - 0
19.10.2019 10:00:00 4,5 4,5 4,9 48 26 66 36 SSW - 0
19.10.2019 09:00:00 3,7 3,2 4,0 54 29 71 38 SSW 82 0
19.10.2019 08:00:00 3,6 3,4 3,6 62 34 77 41 SSW 80 0
19.10.2019 07:00:00 3,7 3,6 3,8 64 35 83 45 SSW 0,1 0
19.10.2019 06:00:00 3,5 3,5 3,7 65 35 76 41 SSW 0,1 0
19.10.2019 05:00:00 3,2 3,1 3,4 59 32 68 37 SW 0,1 0
19.10.2019 04:00:00 3,2 3,2 3,5 49 27 59 32 SSW - 0
19.10.2019 03:00:00 3,4 3,4 3,4 48 26 64 35 SW - 0
19.10.2019 02:00:00 3,4 3,4 3,6 54 29 64 35 SW - 0
19.10.2019 01:00:00 3,0 3,0 3,1 54 29 71 38 SW - 0
19.10.2019 00:00:00 3,3 3,3 3,4 58 32 72 39 SW - 0
18.10.2019 23:00:00 3,5 3,5 3,7 58 32 71 38 SW - 0
18.10.2019 22:00:00 3,5 3,5 3,6 59 32 74 40 SW - 0
18.10.2019 21:00:00 3,8 3,8 4,1 61 33 81 44 WSW - 0
18.10.2019 20:00:00 3,9 3,8 4,1 65 35 87 47 SW 0,1 0
18.10.2019 19:00:00 3,7 3,3 3,5 76 41 92 50 SW 80 18
18.10.2019 18:00:00 4,3 1,1 3,6 69 38 106 57 SW 20 4
18.10.2019 17:00:00 4,5 4,2 4,9 74 40 104 56 SW - 0
18.10.2019 16:00:00 7,7 7,6 8,0 76 41 100 54 SSW 2,5 0
18.10.2019 15:00:00 8,3 8,3 8,6 64 35 87 47 SSW - 0
18.10.2019 14:00:00 8,4 8,4 9,1 69 37 100 54 SSW - 0
18.10.2019 13:00:00 8,1 8,1 8,5 61 33 90 48 SSW - 0
18.10.2019 12:00:00 7,7 7,7 8,3 58 31 79 42 SSW - 0
18.10.2019 11:00:00 7,2 7,2 8,0 65 35 86 47 SSW 0,1 0
18.10.2019 10:00:00 7,1 7,1 7,6 60 32 84 45 SSW - 0
18.10.2019 09:00:00 6,9 6,9 7,1 57 31 76 41 SSW - 0
18.10.2019 08:00:00 6,7 6,7 7,0 46 25 61 33 SSW - 0
18.10.2019 07:00:00 7,1 7,1 7,3 49 27 65 35 SSW - 0
18.10.2019 06:00:00 7,5 7,5 7,7 44 24 64 34 SW - 0
18.10.2019 05:00:00 7,7 7,7 7,9 40 22 59 32 SW - 0
18.10.2019 04:00:00 7,8 7,8 8,0 46 25 64 35 SW - 0
18.10.2019 03:00:00 8,1 8,1 8,3 47 25 66 36 SW - 0
18.10.2019 02:00:00 8,2 8,2 8,4 48 26 66 36 SW - 0
18.10.2019 01:00:00 8,2 8,2 8,3 51 28 69 37 SSW - 0
18.10.2019 00:00:00 8,1 8,1 8,3 45 24 55 30 SSW - 0
17.10.2019 23:00:00 8,1 8,1 8,2 40 22 50 27 SSW - 0
17.10.2019 22:00:00 8,0 8,0 8,1 40 22 54 29 SSW - 0
17.10.2019 21:00:00 8,0 8,0 8,1 39 21 51 28 SSW - 0
17.10.2019 20:00:00 7,8 7,8 7,9 42 23 53 29 SSW - 0
17.10.2019 19:00:00 7,7 7,7 7,9 44 24 53 28 SSW - 0
17.10.2019 18:00:00 7,3 7,3 7,6 37 20 54 29 SW 0,1 0
17.10.2019 17:00:00 7,3 7,3 7,7 45 24 58 31 SSW 0,6 0
17.10.2019 16:00:00 7,5 7,5 8,0 42 23 64 34 SW - 0
17.10.2019 15:00:00 7,6 7,6 8,0 42 23 66 36 SW - 0
17.10.2019 14:00:00 7,5 7,5 7,9 51 28 66 35 SW - 0
17.10.2019 13:00:00 7,3 7,3 7,6 51 27 67 36 SW - 0
17.10.2019 12:00:00 7,1 7,1 7,5 58 31 78 42 SW - 0
17.10.2019 11:00:00 6,8 6,8 7,2 63 34 80 43 SW - 0
17.10.2019 10:00:00 6,5 6,5 6,8 62 34 77 42 SW - 0
17.10.2019 09:00:00 6,4 6,4 6,6 66 36 83 45 SW - 0
17.10.2019 08:00:00 6,3 6,3 6,5 61 33 80 43 SW - 0
17.10.2019 07:00:00 6,2 6,2 6,5 64 34 89 48 SW - 0
17.10.2019 06:00:00 6,3 6,3 6,6 69 38 89 48 SW - 0
17.10.2019 05:00:00 6,4 6,4 6,6 70 38 91 49 SW - 0

tt = temperature
td = dewpoint
tt 5cm = temperature 5cm
ff = wind speed
fx = gusts
dd = wind direction
vv = visibility
sd = sunshine duration

Next stations